sensor_id;sensor_type;location;lat;lon;timestamp;pressure;altitude;pressure_sealevel;temperature
64947;BMP280;51469;52.150;4.682;2024-01-30T00:00:21;102725.00;;;14.81
64947;BMP280;51469;52.150;4.682;2024-01-30T00:02:46;102712.34;;;14.62
64947;BMP280;51469;52.150;4.682;2024-01-30T00:05:11;102706.41;;;14.63
64947;BMP280;51469;52.150;4.682;2024-01-30T00:07:37;102707.38;;;14.70
64947;BMP280;51469;52.150;4.682;2024-01-30T00:10:02;102700.47;;;14.61
64947;BMP280;51469;52.150;4.682;2024-01-30T00:12:28;102702.34;;;14.57
64947;BMP280;51469;52.150;4.682;2024-01-30T00:14:53;102707.38;;;14.70
64947;BMP280;51469;52.150;4.682;2024-01-30T00:17:19;102703.63;;;14.78
64947;BMP280;51469;52.150;4.682;2024-01-30T00:19:46;102707.38;;;14.70
64947;BMP280;51469;52.150;4.682;2024-01-30T00:22:11;102699.06;;;14.86
64947;BMP280;51469;52.150;4.682;2024-01-30T00:24:37;102710.91;;;14.86
64947;BMP280;51469;52.150;4.682;2024-01-30T00:27:02;102711.72;;;14.87
64947;BMP280;51469;52.150;4.682;2024-01-30T00:29:28;102707.78;;;14.88
64947;BMP280;51469;52.150;4.682;2024-01-30T00:31:56;102704.88;;;14.81
64947;BMP280;51469;52.150;4.682;2024-01-30T00:34:21;102701.47;;;14.88
64947;BMP280;51469;52.150;4.682;2024-01-30T00:36:47;102695.25;;;14.91
64947;BMP280;51469;52.150;4.682;2024-01-30T00:39:12;102692.09;;;14.92
64947;BMP280;51469;52.150;4.682;2024-01-30T00:41:37;102677.69;;;14.83
64947;BMP280;51469;52.150;4.682;2024-01-30T00:44:03;102685.00;;;14.91
64947;BMP280;51469;52.150;4.682;2024-01-30T00:46:28;102683.53;;;14.97
64947;BMP280;51469;52.150;4.682;2024-01-30T00:48:54;102676.25;;;15.08
64947;BMP280;51469;52.150;4.682;2024-01-30T00:51:19;102686.56;;;14.92
64947;BMP280;51469;52.150;4.682;2024-01-30T00:53:45;102681.03;;;14.92
64947;BMP280;51469;52.150;4.682;2024-01-30T00:56:10;102702.88;;;14.97
64947;BMP280;51469;52.150;4.682;2024-01-30T00:58:35;102693.91;;;15.03
64947;BMP280;51469;52.150;4.682;2024-01-30T01:03:36;102711.31;;;15.04
64947;BMP280;51469;52.150;4.682;2024-01-30T01:06:01;102714.69;;;15.13
64947;BMP280;51469;52.150;4.682;2024-01-30T01:08:26;102707.56;;;15.12
64947;BMP280;51469;52.150;4.682;2024-01-30T01:10:52;102692.44;;;15.06
64947;BMP280;51469;52.150;4.682;2024-01-30T01:13:17;102690.16;;;15.12
64947;BMP280;51469;52.150;4.682;2024-01-30T01:15:42;102690.97;;;15.12
64947;BMP280;51469;52.150;4.682;2024-01-30T01:18:08;102688.63;;;15.14
64947;BMP280;51469;52.150;4.682;2024-01-30T01:20:33;102691.81;;;15.16
64947;BMP280;51469;52.150;4.682;2024-01-30T01:22:58;102677.72;;;15.02
64947;BMP280;51469;52.150;4.682;2024-01-30T01:25:24;102681.97;;;14.99
64947;BMP280;51469;52.150;4.682;2024-01-30T01:27:49;102681.78;;;14.89
64947;BMP280;51469;52.150;4.682;2024-01-30T01:30:17;102680.63;;;15.09
64947;BMP280;51469;52.150;4.682;2024-01-30T01:32:48;102689.63;;;15.25
64947;BMP280;51469;52.150;4.682;2024-01-30T01:35:23;102684.09;;;15.25
64947;BMP280;51469;52.150;4.682;2024-01-30T01:37:50;102675.38;;;15.23
64947;BMP280;51469;52.150;4.682;2024-01-30T01:40:22;102665.00;;;15.36
64947;BMP280;51469;52.150;4.682;2024-01-30T01:42:47;102662.13;;;15.32
64947;BMP280;51469;52.150;4.682;2024-01-30T01:45:14;102651.91;;;15.36
64947;BMP280;51469;52.150;4.682;2024-01-30T01:47:39;102648.97;;;15.26
64947;BMP280;51469;52.150;4.682;2024-01-30T01:50:05;102653.53;;;15.37
64947;BMP280;51469;52.150;4.682;2024-01-30T01:52:31;102663.91;;;15.40
64947;BMP280;51469;52.150;4.682;2024-01-30T01:54:56;102644.72;;;15.32
64947;BMP280;51469;52.150;4.682;2024-01-30T01:57:22;102668.53;;;15.36
64947;BMP280;51469;52.150;4.682;2024-01-30T01:59:47;102662.88;;;15.29
64947;BMP280;51469;52.150;4.682;2024-01-30T02:02:14;102675.75;;;15.22
64947;BMP280;51469;52.150;4.682;2024-01-30T02:04:41;102671.72;;;15.00
64947;BMP280;51469;52.150;4.682;2024-01-30T02:07:06;102667.25;;;15.11
64947;BMP280;51469;52.150;4.682;2024-01-30T02:09:32;102678.44;;;15.18
64947;BMP280;51469;52.150;4.682;2024-01-30T02:11:57;102668.09;;;15.15
64947;BMP280;51469;52.150;4.682;2024-01-30T02:14:23;102654.31;;;14.96
64947;BMP280;51469;52.150;4.682;2024-01-30T02:16:48;102669.84;;;15.23
64947;BMP280;51469;52.150;4.682;2024-01-30T02:19:13;102665.84;;;15.21
64947;BMP280;51469;52.150;4.682;2024-01-30T02:21:39;102649.34;;;15.24
64947;BMP280;51469;52.150;4.682;2024-01-30T02:24:05;102653.41;;;15.30
64947;BMP280;51469;52.150;4.682;2024-01-30T02:26:30;102649.44;;;15.31
64947;BMP280;51469;52.150;4.682;2024-01-30T02:28:56;102652.59;;;15.30
64947;BMP280;51469;52.150;4.682;2024-01-30T02:31:21;102649.16;;;15.36
64947;BMP280;51469;52.150;4.682;2024-01-30T02:33:46;102644.66;;;15.28
64947;BMP280;51469;52.150;4.682;2024-01-30T02:36:12;102646.31;;;15.32
64947;BMP280;51469;52.150;4.682;2024-01-30T02:38:37;102655.72;;;15.28
64947;BMP280;51469;52.150;4.682;2024-01-30T02:41:02;102653.47;;;15.34
64947;BMP280;51469;52.150;4.682;2024-01-30T02:43:28;102650.19;;;15.28
64947;BMP280;51469;52.150;4.682;2024-01-30T02:45:53;102654.97;;;15.31
64947;BMP280;51469;52.150;4.682;2024-01-30T02:48:19;102662.06;;;15.29
64947;BMP280;51469;52.150;4.682;2024-01-30T02:50:44;102657.75;;;15.31
64947;BMP280;51469;52.150;4.682;2024-01-30T02:53:09;102653.41;;;15.30
64947;BMP280;51469;52.150;4.682;2024-01-30T02:55:35;102637.47;;;15.24
64947;BMP280;51469;52.150;4.682;2024-01-30T02:58:00;102629.84;;;15.17
64947;BMP280;51469;52.150;4.682;2024-01-30T03:00:25;102635.91;;;15.26
64947;BMP280;51469;52.150;4.682;2024-01-30T03:02:51;102623.94;;;15.19
64947;BMP280;51469;52.150;4.682;2024-01-30T03:05:16;102615.25;;;15.20
64947;BMP280;51469;52.150;4.682;2024-01-30T03:07:41;102618.19;;;15.08
64947;BMP280;51469;52.150;4.682;2024-01-30T03:10:07;102616.09;;;15.02
64947;BMP280;51469;52.150;4.682;2024-01-30T03:12:33;102604.66;;;15.03
64947;BMP280;51469;52.150;4.682;2024-01-30T03:14:58;102610.16;;;15.03
64947;BMP280;51469;52.150;4.682;2024-01-30T03:17:23;102614.84;;;14.99
64947;BMP280;51469;52.150;4.682;2024-01-30T03:19:49;102605.38;;;15.00
64947;BMP280;51469;52.150;4.682;2024-01-30T03:22:15;102612.09;;;14.99
64947;BMP280;51469;52.150;4.682;2024-01-30T03:24:40;102613.88;;;14.91
64947;BMP280;51469;52.150;4.682;2024-01-30T03:27:06;102615.88;;;14.91
64947;BMP280;51469;52.150;4.682;2024-01-30T03:29:31;102620.31;;;14.96
64947;BMP280;51469;52.150;4.682;2024-01-30T03:31:56;102608.91;;;14.97
64947;BMP280;51469;52.150;4.682;2024-01-30T03:34:22;102612.03;;;14.96
64947;BMP280;51469;52.150;4.682;2024-01-30T03:36:47;102620.50;;;14.87
64947;BMP280;51469;52.150;4.682;2024-01-30T03:39:12;102627.34;;;14.93
64947;BMP280;51469;52.150;4.682;2024-01-30T03:41:37;102619.66;;;15.02
64947;BMP280;51469;52.150;4.682;2024-01-30T03:44:03;102619.16;;;14.97
64947;BMP280;51469;52.150;4.682;2024-01-30T03:46:28;102617.03;;;14.90
64947;BMP280;51469;52.150;4.682;2024-01-30T03:48:54;102609.31;;;14.99
64947;BMP280;51469;52.150;4.682;2024-01-30T03:51:19;102615.59;;;14.96
64947;BMP280;51469;52.150;4.682;2024-01-30T03:53:44;102604.66;;;15.03
64947;BMP280;51469;52.150;4.682;2024-01-30T03:56:11;102605.69;;;15.14
64947;BMP280;51469;52.150;4.682;2024-01-30T03:58:38;102606.44;;;15.11
64947;BMP280;51469;52.150;4.682;2024-01-30T04:01:04;102604.09;;;15.13
64947;BMP280;51469;52.150;4.682;2024-01-30T04:03:29;102601.75;;;15.15
64947;BMP280;51469;52.150;4.682;2024-01-30T04:05:54;102600.56;;;15.16
64947;BMP280;51469;52.150;4.682;2024-01-30T04:08:20;102602.13;;;15.14
64947;BMP280;51469;52.150;4.682;2024-01-30T04:10:46;102598.88;;;15.31
64947;BMP280;51469;52.150;4.682;2024-01-30T04:13:12;102606.75;;;15.29
64947;BMP280;51469;52.150;4.682;2024-01-30T04:15:37;102596.72;;;15.21
64947;BMP280;51469;52.150;4.682;2024-01-30T04:18:03;102589.25;;;15.02
64947;BMP280;51469;52.150;4.682;2024-01-30T04:20:29;102591.44;;;15.12
64947;BMP280;51469;52.150;4.682;2024-01-30T04:22:55;102589.69;;;15.04
64947;BMP280;51469;52.150;4.682;2024-01-30T04:25:20;102593.59;;;15.03
64947;BMP280;51469;52.150;4.682;2024-01-30T04:27:46;102589.69;;;15.04
64947;BMP280;51469;52.150;4.682;2024-01-30T04:30:11;102597.13;;;15.19
64947;BMP280;51469;52.150;4.682;2024-01-30T04:32:37;102598.00;;;15.27
64947;BMP280;51469;52.150;4.682;2024-01-30T04:35:03;102597.81;;;15.35
64947;BMP280;51469;52.150;4.682;2024-01-30T04:37:28;102590.69;;;15.34
64947;BMP280;51469;52.150;4.682;2024-01-30T04:39:53;102573.78;;;15.39
64947;BMP280;51469;52.150;4.682;2024-01-30T04:42:19;102575.06;;;15.26
64947;BMP280;51469;52.150;4.682;2024-01-30T04:44:44;102576.09;;;15.37
64947;BMP280;51469;52.150;4.682;2024-01-30T04:47:10;102567.06;;;15.40
64947;BMP280;51469;52.150;4.682;2024-01-30T04:49:38;102563.31;;;15.29
64947;BMP280;51469;52.150;4.682;2024-01-30T04:52:05;102561.16;;;15.19
64947;BMP280;51469;52.150;4.682;2024-01-30T04:54:31;102566.41;;;15.24
64947;BMP280;51469;52.150;4.682;2024-01-30T04:56:56;102568.56;;;15.34
64947;BMP280;51469;52.150;4.682;2024-01-30T04:59:21;102562.06;;;15.49
64947;BMP280;51469;52.150;4.682;2024-01-30T05:01:47;102561.97;;;15.42
64947;BMP280;51469;52.150;4.682;2024-01-30T05:04:12;102568.41;;;15.50
64947;BMP280;51469;52.150;4.682;2024-01-30T05:06:37;102571.44;;;15.41
64947;BMP280;51469;52.150;4.682;2024-01-30T05:09:03;102575.78;;;15.42
64947;BMP280;51469;52.150;4.682;2024-01-30T05:11:31;102564.78;;;15.23
64947;BMP280;51469;52.150;4.682;2024-01-30T05:14:01;102566.81;;;15.49
64947;BMP280;51469;52.150;4.682;2024-01-30T05:16:26;102570.88;;;15.55
64947;BMP280;51469;52.150;4.682;2024-01-30T05:18:52;102560.63;;;15.36
64947;BMP280;51469;52.150;4.682;2024-01-30T05:21:17;102579.44;;;15.46
64947;BMP280;51469;52.150;4.682;2024-01-30T05:23:43;102567.59;;;15.49
64947;BMP280;51469;52.150;4.682;2024-01-30T05:26:08;102576.84;;;15.57
64947;BMP280;51469;52.150;4.682;2024-01-30T05:28:33;102580.59;;;15.45
64947;BMP280;51469;52.150;4.682;2024-01-30T05:30:59;102572.41;;;15.52
64947;BMP280;51469;52.150;4.682;2024-01-30T05:33:24;102572.47;;;15.56
64947;BMP280;51469;52.150;4.682;2024-01-30T05:35:50;102569.66;;;15.52
64947;BMP280;51469;52.150;4.682;2024-01-30T05:38:16;102568.94;;;15.36
64947;BMP280;51469;52.150;4.682;2024-01-30T05:40:41;102573.50;;;15.48
64947;BMP280;51469;52.150;4.682;2024-01-30T05:43:07;102568.78;;;15.48
64947;BMP280;51469;52.150;4.682;2024-01-30T05:45:33;102571.25;;;15.53
64947;BMP280;51469;52.150;4.682;2024-01-30T05:48:00;102576.47;;;15.58
64947;BMP280;51469;52.150;4.682;2024-01-30T05:50:25;102571.81;;;15.62
64947;BMP280;51469;52.150;4.682;2024-01-30T05:52:51;102574.94;;;15.61
64947;BMP280;51469;52.150;4.682;2024-01-30T05:55:16;102579.44;;;15.46
64947;BMP280;51469;52.150;4.682;2024-01-30T05:57:42;102570.34;;;15.68
64947;BMP280;51469;52.150;4.682;2024-01-30T06:00:07;102574.34;;;15.74
64947;BMP280;51469;52.150;4.682;2024-01-30T06:02:34;102571.81;;;15.62
64947;BMP280;51469;52.150;4.682;2024-01-30T06:04:59;102568.06;;;15.74
64947;BMP280;51469;52.150;4.682;2024-01-30T06:07:24;102586.31;;;15.78
64947;BMP280;51469;52.150;4.682;2024-01-30T06:09:50;102574.50;;;15.81
64947;BMP280;51469;52.150;4.682;2024-01-30T06:12:15;102586.38;;;15.82
64947;BMP280;51469;52.150;4.682;2024-01-30T06:14:40;102576.09;;;15.82
64947;BMP280;51469;52.150;4.682;2024-01-30T06:17:07;102586.94;;;15.68
64947;BMP280;51469;52.150;4.682;2024-01-30T06:19:33;102579.22;;;15.81
64947;BMP280;51469;52.150;4.682;2024-01-30T06:21:58;102576.22;;;15.89
64947;BMP280;51469;52.150;4.682;2024-01-30T06:24:23;102584.03;;;15.84
64947;BMP280;51469;52.150;4.682;2024-01-30T06:26:49;102581.63;;;15.82
64947;BMP280;51469;52.150;4.682;2024-01-30T06:29:14;102580.22;;;15.92
64947;BMP280;51469;52.150;4.682;2024-01-30T06:31:40;102581.84;;;15.96
64947;BMP280;51469;52.150;4.682;2024-01-30T06:34:07;102577.44;;;15.92
64947;BMP280;51469;52.150;4.682;2024-01-30T06:36:32;102581.00;;;15.92
64947;BMP280;51469;52.150;4.682;2024-01-30T06:38:57;102580.34;;;16.02
64947;BMP280;51469;52.150;4.682;2024-01-30T06:41:23;102583.44;;;15.97
64947;BMP280;51469;52.150;4.682;2024-01-30T06:43:49;102575.59;;;15.99
64947;BMP280;51469;52.150;4.682;2024-01-30T06:46:14;102571.53;;;15.93
64947;BMP280;51469;52.150;4.682;2024-01-30T06:48:40;102576.44;;;15.81
64947;BMP280;51469;52.150;4.682;2024-01-30T06:51:05;102577.91;;;15.97
64947;BMP280;51469;52.150;4.682;2024-01-30T06:53:31;102580.16;;;15.88
64947;BMP280;51469;52.150;4.682;2024-01-30T06:55:57;102592.06;;;15.92
64947;BMP280;51469;52.150;4.682;2024-01-30T06:58:22;102585.06;;;15.98
64947;BMP280;51469;52.150;4.682;2024-01-30T07:00:47;102586.91;;;15.91
64947;BMP280;51469;52.150;4.682;2024-01-30T07:03:13;102583.00;;;15.95
64947;BMP280;51469;52.150;4.682;2024-01-30T07:05:38;102592.94;;;15.96
64947;BMP280;51469;52.150;4.682;2024-01-30T07:08:04;102594.06;;;16.18
64947;BMP280;51469;52.150;4.682;2024-01-30T07:10:29;102599.56;;;16.14
64947;BMP280;51469;52.150;4.682;2024-01-30T07:12:56;102590.47;;;16.17
64947;BMP280;51469;52.150;4.682;2024-01-30T07:15:21;102603.31;;;16.03
64947;BMP280;51469;52.150;4.682;2024-01-30T07:17:47;102591.41;;;16.25
64947;BMP280;51469;52.150;4.682;2024-01-30T07:20:13;102594.00;;;16.14
64947;BMP280;51469;52.150;4.682;2024-01-30T07:22:38;102595.81;;;16.29
64947;BMP280;51469;52.150;4.682;2024-01-30T07:25:04;102598.28;;;16.34
64947;BMP280;51469;52.150;4.682;2024-01-30T07:27:29;102605.19;;;16.21
64947;BMP280;51469;52.150;4.682;2024-01-30T07:29:55;102606.53;;;16.60
64947;BMP280;51469;52.150;4.682;2024-01-30T07:32:20;102602.75;;;16.72
64947;BMP280;51469;52.150;4.682;2024-01-30T07:34:45;102612.41;;;16.85
64947;BMP280;51469;52.150;4.682;2024-01-30T07:37:11;102613.44;;;16.73
64947;BMP280;51469;52.150;4.682;2024-01-30T07:39:40;102621.09;;;16.83
64947;BMP280;51469;52.150;4.682;2024-01-30T07:42:06;102626.22;;;16.52
64947;BMP280;51469;52.150;4.682;2024-01-30T07:44:31;102623.34;;;16.74
64947;BMP280;51469;52.150;4.682;2024-01-30T07:46:56;102630.88;;;16.44
64947;BMP280;51469;52.150;4.682;2024-01-30T07:49:22;102612.41;;;16.85
64947;BMP280;51469;52.150;4.682;2024-01-30T07:51:47;102622.19;;;16.75
64947;BMP280;51469;52.150;4.682;2024-01-30T07:54:13;102624.31;;;16.85
64947;BMP280;51469;52.150;4.682;2024-01-30T07:56:41;102622.94;;;17.02
64947;BMP280;51469;52.150;4.682;2024-01-30T07:59:10;102624.78;;;16.94
64947;BMP280;51469;52.150;4.682;2024-01-30T08:01:35;102626.41;;;16.95
64947;BMP280;51469;52.150;4.682;2024-01-30T08:04:00;102627.28;;;16.73
64947;BMP280;51469;52.150;4.682;2024-01-30T08:06:26;102625.41;;;17.10
64947;BMP280;51469;52.150;4.682;2024-01-30T08:08:51;102623.59;;;17.28
64947;BMP280;51469;52.150;4.682;2024-01-30T08:11:20;102635.81;;;17.20
64947;BMP280;51469;52.150;4.682;2024-01-30T08:13:45;102648.47;;;16.88
64947;BMP280;51469;52.150;4.682;2024-01-30T08:16:11;102653.19;;;17.17
64947;BMP280;51469;52.150;4.682;2024-01-30T08:18:36;102652.59;;;17.34
64947;BMP280;51469;52.150;4.682;2024-01-30T08:21:01;102640.13;;;17.54
64947;BMP280;51469;52.150;4.682;2024-01-30T08:23:26;102660.59;;;17.39
64947;BMP280;51469;52.150;4.682;2024-01-30T08:25:52;102660.38;;;17.22
64947;BMP280;51469;52.150;4.682;2024-01-30T08:28:17;102649.38;;;17.32
64947;BMP280;51469;52.150;4.682;2024-01-30T08:30:43;102643.13;;;17.38
64947;BMP280;51469;52.150;4.682;2024-01-30T08:33:08;102662.38;;;17.58
64947;BMP280;51469;52.150;4.682;2024-01-30T08:35:33;102658.69;;;17.10
64947;BMP280;51469;52.150;4.682;2024-01-30T08:37:59;102659.16;;;17.55
64947;BMP280;51469;52.150;4.682;2024-01-30T08:40:25;102655.31;;;17.67
64947;BMP280;51469;52.150;4.682;2024-01-30T08:42:50;102665.28;;;17.35
64947;BMP280;51469;52.150;4.682;2024-01-30T08:45:16;102661.38;;;17.36
64947;BMP280;51469;52.150;4.682;2024-01-30T08:47:41;102659.78;;;17.38
64947;BMP280;51469;52.150;4.682;2024-01-30T08:50:07;102655.31;;;17.67
64947;BMP280;51469;52.150;4.682;2024-01-30T08:52:32;102648.56;;;17.68
64947;BMP280;51469;52.150;4.682;2024-01-30T08:54:59;102652.28;;;17.79
64947;BMP280;51469;52.150;4.682;2024-01-30T08:57:24;102660.16;;;17.77
64947;BMP280;51469;52.150;4.682;2024-01-30T08:59:53;102655.19;;;17.53
64947;BMP280;51469;52.150;4.682;2024-01-30T09:02:19;102655.19;;;17.53
64947;BMP280;51469;52.150;4.682;2024-01-30T09:04:44;102666.28;;;17.53
64947;BMP280;51469;52.150;4.682;2024-01-30T09:07:10;102662.56;;;17.78
64947;BMP280;51469;52.150;4.682;2024-01-30T09:09:37;102664.38;;;17.24
64947;BMP280;51469;52.150;4.682;2024-01-30T09:12:02;102671.06;;;17.56
64947;BMP280;51469;52.150;4.682;2024-01-30T09:14:32;102678.41;;;17.78
64947;BMP280;51469;52.150;4.682;2024-01-30T09:16:57;102680.88;;;17.86
64947;BMP280;51469;52.150;4.682;2024-01-30T09:19:23;102689.31;;;17.57
64947;BMP280;51469;52.150;4.682;2024-01-30T09:21:48;102693.38;;;17.66
64947;BMP280;51469;52.150;4.682;2024-01-30T09:24:13;102689.31;;;17.57
64947;BMP280;51469;52.150;4.682;2024-01-30T09:26:39;102692.75;;;17.11
64947;BMP280;51469;52.150;4.682;2024-01-30T09:29:04;102682.94;;;17.56
64947;BMP280;51469;52.150;4.682;2024-01-30T09:31:29;102689.81;;;17.30
64947;BMP280;51469;52.150;4.682;2024-01-30T09:33:55;102698.66;;;17.42
64947;BMP280;51469;52.150;4.682;2024-01-30T09:36:20;102709.53;;;17.54
64947;BMP280;51469;52.150;4.682;2024-01-30T09:38:46;102712.72;;;17.23
64947;BMP280;51469;52.150;4.682;2024-01-30T09:41:11;102711.75;;;17.09
64947;BMP280;51469;52.150;4.682;2024-01-30T09:43:38;102720.78;;;17.35
64947;BMP280;51469;52.150;4.682;2024-01-30T09:46:05;102717.19;;;16.72
64947;BMP280;51469;52.150;4.682;2024-01-30T09:48:32;102728.25;;;16.98
64947;BMP280;51469;52.150;4.682;2024-01-30T09:50:58;102724.88;;;16.82
64947;BMP280;51469;52.150;4.682;2024-01-30T09:53:23;102737.31;;;17.25
64947;BMP280;51469;52.150;4.682;2024-01-30T09:55:49;102754.81;;;16.47
64947;BMP280;51469;52.150;4.682;2024-01-30T09:58:15;102740.19;;;17.02
64947;BMP280;51469;52.150;4.682;2024-01-30T10:00:41;102729.72;;;16.89
64947;BMP280;51469;52.150;4.682;2024-01-30T10:03:06;102737.44;;;16.76
64947;BMP280;51469;52.150;4.682;2024-01-30T10:05:31;102730.13;;;16.39
64947;BMP280;51469;52.150;4.682;2024-01-30T10:07:59;102733.56;;;16.32
64947;BMP280;51469;52.150;4.682;2024-01-30T10:10:24;102734.66;;;17.02
64947;BMP280;51469;52.150;4.682;2024-01-30T10:12:50;102741.41;;;16.75
64947;BMP280;51469;52.150;4.682;2024-01-30T10:15:17;102748.22;;;16.81
64947;BMP280;51469;52.150;4.682;2024-01-30T10:17:44;102731.56;;;16.81
64947;BMP280;51469;52.150;4.682;2024-01-30T10:20:10;102749.28;;;16.73
64947;BMP280;51469;52.150;4.682;2024-01-30T10:22:35;102754.16;;;16.83
64947;BMP280;51469;52.150;4.682;2024-01-30T10:25:01;102750.19;;;16.32
64947;BMP280;51469;52.150;4.682;2024-01-30T10:27:26;102751.72;;;16.26
64947;BMP280;51469;52.150;4.682;2024-01-30T10:29:54;102738.63;;;16.04
64947;BMP280;51469;52.150;4.682;2024-01-30T10:32:20;102762.88;;;16.33
64947;BMP280;51469;52.150;4.682;2024-01-30T10:34:46;102749.22;;;16.21
64947;BMP280;51469;52.150;4.682;2024-01-30T10:37:12;102756.06;;;16.05
64947;BMP280;51469;52.150;4.682;2024-01-30T10:39:41;102767.09;;;15.63
64947;BMP280;51469;52.150;4.682;2024-01-30T10:42:11;102761.00;;;15.73
64947;BMP280;51469;52.150;4.682;2024-01-30T10:44:44;102770.66;;;15.83
64947;BMP280;51469;52.150;4.682;2024-01-30T10:47:17;102778.06;;;15.03
64947;BMP280;51469;52.150;4.682;2024-01-30T10:49:43;102778.63;;;15.65
64947;BMP280;51469;52.150;4.682;2024-01-30T10:52:10;102780.69;;;15.68
64947;BMP280;51469;52.150;4.682;2024-01-30T10:54:36;102771.78;;;16.01
64947;BMP280;51469;52.150;4.682;2024-01-30T10:57:03;102769.00;;;16.01
64947;BMP280;51469;52.150;4.682;2024-01-30T10:59:30;102757.56;;;16.02
64947;BMP280;51469;52.150;4.682;2024-01-30T11:01:57;102765.28;;;15.71
64947;BMP280;51469;52.150;4.682;2024-01-30T11:04:23;102769.66;;;15.72
64947;BMP280;51469;52.150;4.682;2024-01-30T11:06:50;102761.66;;;16.08
64947;BMP280;51469;52.150;4.682;2024-01-30T11:09:17;102778.59;;;15.84
64947;BMP280;51469;52.150;4.682;2024-01-30T11:14:15;102776.91;;;15.80
64947;BMP280;51469;52.150;4.682;2024-01-30T11:16:40;102795.34;;;15.91
64947;BMP280;51469;52.150;4.682;2024-01-30T11:19:10;102775.69;;;15.58
64947;BMP280;51469;52.150;4.682;2024-01-30T11:21:41;102765.72;;;15.00
64947;BMP280;51469;52.150;4.682;2024-01-30T11:24:07;102787.34;;;15.48
64947;BMP280;51469;52.150;4.682;2024-01-30T11:26:33;102776.91;;;16.21
64947;BMP280;51469;52.150;4.682;2024-01-30T11:28:58;102778.53;;;15.81
64947;BMP280;51469;52.150;4.682;2024-01-30T11:31:23;102779.38;;;15.85
64947;BMP280;51469;52.150;4.682;2024-01-30T11:33:52;102781.94;;;15.74
64947;BMP280;51469;52.150;4.682;2024-01-30T11:36:20;102772.31;;;15.87
64947;BMP280;51469;52.150;4.682;2024-01-30T11:38:48;102766.09;;;15.71
64947;BMP280;51469;52.150;4.682;2024-01-30T11:41:14;102789.81;;;15.53
64947;BMP280;51469;52.150;4.682;2024-01-30T11:43:39;102779.94;;;15.71
64947;BMP280;51469;52.150;4.682;2024-01-30T11:46:06;102789.06;;;16.13
64947;BMP280;51469;52.150;4.682;2024-01-30T11:48:32;102784.41;;;15.98
64947;BMP280;51469;52.150;4.682;2024-01-30T11:50:57;102780.88;;;16.43
64947;BMP280;51469;52.150;4.682;2024-01-30T11:53:23;102778.66;;;16.29
64947;BMP280;51469;52.150;4.682;2024-01-30T11:55:51;102794.03;;;16.49
64947;BMP280;51469;52.150;4.682;2024-01-30T11:58:17;102785.16;;;16.40
64947;BMP280;51469;52.150;4.682;2024-01-30T12:00:52;102785.28;;;16.47
64947;BMP280;51469;52.150;4.682;2024-01-30T12:03:18;102788.06;;;16.47
64947;BMP280;51469;52.150;4.682;2024-01-30T12:05:43;102792.44;;;16.71
64947;BMP280;51469;52.150;4.682;2024-01-30T12:08:15;102801.41;;;16.64
64947;BMP280;51469;52.150;4.682;2024-01-30T12:10:40;102797.13;;;16.44
64947;BMP280;51469;52.150;4.682;2024-01-30T12:13:06;102808.06;;;16.60
64947;BMP280;51469;52.150;4.682;2024-01-30T12:15:31;102816.44;;;16.18
64947;BMP280;51469;52.150;4.682;2024-01-30T12:18:06;102807.41;;;16.02
64947;BMP280;51469;52.150;4.682;2024-01-30T12:20:32;102819.66;;;16.20
64947;BMP280;51469;52.150;4.682;2024-01-30T12:22:58;102805.41;;;16.22
64947;BMP280;51469;52.150;4.682;2024-01-30T12:25:23;102811.66;;;16.38
64947;BMP280;51469;52.150;4.682;2024-01-30T12:27:50;102812.53;;;16.42
64947;BMP280;51469;52.150;4.682;2024-01-30T12:30:16;102814.75;;;16.14
64947;BMP280;51469;52.150;4.682;2024-01-30T12:32:43;102814.75;;;16.14
64947;BMP280;51469;52.150;4.682;2024-01-30T12:35:16;102817.59;;;16.36
64947;BMP280;51469;52.150;4.682;2024-01-30T12:37:43;102821.78;;;16.08
64947;BMP280;51469;52.150;4.682;2024-01-30T12:40:09;102806.72;;;15.29
64947;BMP280;51469;52.150;4.682;2024-01-30T12:42:35;102831.44;;;15.22
64947;BMP280;51469;52.150;4.682;2024-01-30T12:45:05;102826.97;;;15.71
64947;BMP280;51469;52.150;4.682;2024-01-30T12:47:30;102835.13;;;15.64
64947;BMP280;51469;52.150;4.682;2024-01-30T12:49:56;102839.06;;;15.82
64947;BMP280;51469;52.150;4.682;2024-01-30T12:52:22;102831.59;;;15.48
64947;BMP280;51469;52.150;4.682;2024-01-30T12:54:48;102830.59;;;15.56
64947;BMP280;51469;52.150;4.682;2024-01-30T12:57:14;102824.00;;;15.26
64947;BMP280;51469;52.150;4.682;2024-01-30T12:59:39;102833.50;;;15.63
64947;BMP280;51469;52.150;4.682;2024-01-30T13:02:05;102837.41;;;15.78
64947;BMP280;51469;52.150;4.682;2024-01-30T13:04:31;102826.84;;;15.83
64947;BMP280;51469;52.150;4.682;2024-01-30T13:06:56;102837.59;;;15.69
64947;BMP280;51469;52.150;4.682;2024-01-30T13:09:22;102838.34;;;15.66
64947;BMP280;51469;52.150;4.682;2024-01-30T13:11:48;102839.34;;;15.39
64947;BMP280;51469;52.150;4.682;2024-01-30T13:14:14;102837.25;;;15.17
64947;BMP280;51469;52.150;4.682;2024-01-30T13:16:39;102835.41;;;15.40
64947;BMP280;51469;52.150;4.682;2024-01-30T13:19:04;102837.88;;;15.64
64947;BMP280;51469;52.150;4.682;2024-01-30T13:21:30;102837.72;;;15.38
64947;BMP280;51469;52.150;4.682;2024-01-30T13:23:55;102841.50;;;15.49
64947;BMP280;51469;52.150;4.682;2024-01-30T13:26:21;102846.47;;;15.40
64947;BMP280;51469;52.150;4.682;2024-01-30T13:28:46;102844.88;;;15.39
64947;BMP280;51469;52.150;4.682;2024-01-30T13:31:14;102847.50;;;15.51
64947;BMP280;51469;52.150;4.682;2024-01-30T13:33:39;102861.19;;;15.63
64947;BMP280;51469;52.150;4.682;2024-01-30T13:36:06;102851.00;;;15.67
64947;BMP280;51469;52.150;4.682;2024-01-30T13:38:31;102830.22;;;15.39
64947;BMP280;51469;52.150;4.682;2024-01-30T13:40:57;102855.31;;;15.46
64947;BMP280;51469;52.150;4.682;2024-01-30T13:43:22;102872.25;;;15.63
64947;BMP280;51469;52.150;4.682;2024-01-30T13:45:47;102864.41;;;15.65
64947;BMP280;51469;52.150;4.682;2024-01-30T13:48:13;102868.22;;;15.57
64947;BMP280;51469;52.150;4.682;2024-01-30T13:50:38;102868.75;;;15.47
64947;BMP280;51469;52.150;4.682;2024-01-30T13:53:03;102873.84;;;15.64